Detall de PIREP

Printer-friendly versionPDF version

[2012/01/16 08:29:00]
Flight IATA:CT2111
Pilot Number:041
Company ICAO:CAT
Aircraft Type:F50/A
PAX:28
Aircraft Registration:PAOB
Departing Airport: LEST
Destination Airport: LEVC
Alternate Airport:LEPA
Online: VATSIM
Route:FORNO A33 ZMR A33 DISKO A33 INDEG A33 MAGIN A33 HORTA A33 CJN A33 PRADO A33 CENTA
Flight Level:F200
No Slew and time accel
No pause
Crash detect
Detect pilot in Cockpit between each 30 and 45 minutes
08:29 Zero fuel Weight: 35103 Lbs, Fuel Weight: 9054 Lbs
08:29 VATSIM:LEST 160800Z 00000KT 9000 2500NW VCFG NSC M03/M03 Q1017 TEMPO 0900 FZFG BKN002
08:29 VATSIM:LEVC 160800Z VRB02KT 9999 -RA SCT022 BKN060 08/08 Q1011 NOSIG
08:29 VOICE CATALONIAN
08:30 Parking Brakes off
08:40 Take-off
08:40 Take off Weight: 44036 Lbs
08:40 Wind: 333º @ 002 Knots Heading: 165º
08:40 POS N42º 53´ 47´´ W008º 24´ 54´´
08:40 Gear Up: 121 Knots
08:40 Flaps:2 at 121 Knots
08:41 Flaps:1 at 121 Knots
08:41 Flaps:0 at 128 Knots
08:55 Wind:338º@029 Knots Heading: 117º Ground Speed: 237 Knots Altitude 16512 ft
08:58 TOC
08:58 Fuel Weight: 8297 Lb
09:10 Wind:322º@015 Knots Heading: 123º Ground Speed: 268 Knots Altitude 19990 ft
09:25 Wind:063º@013 Knots Heading: 113º Ground Speed: 259 Knots Altitude 19977 ft
09:40 Wind:002º@005 Knots Heading: 115º Ground Speed: 259 Knots Altitude 19950 ft
09:50 TOD
09:50 Fuel Weight: 6777 Lb
09:55 Wind:144º@008 Knots Heading: 118º Ground Speed: 245 Knots Altitude 16030 ft
10:10 Wind:227º@007 Knots Heading: 120º Ground Speed: 250 Knots Altitude 8001 ft
10:25 Wind:199º@005 Knots Heading: 126º Ground Speed: 200 Knots Altitude 3999 ft
10:28 Flaps:1 at 170 Knots
10:28 Flaps:2 at 159 Knots
10:33 Flaps:3 at 159 Knots
10:35 Gear Down: 162 Knots
10:36 Flaps:4 at 136 Knots
10:36 Flaps:5 at 123 Knots
10:40Wind:303º@005 Knots Heading: 295º Ground Speed: 103 Knots Altitude 265 ft
10:40 TouchDown:Rate -114 ft/min Speed: 105 Knots
10:40 VATSIM:LEVC 161030Z 30006KT 9999 SCT022 BKN040 10/07 Q1012 NOSIG
10:40 Land
10:40 Wind:303º@005 Knots
10:40 Heading: 295º
10:40 Flight Duration: 02:00
10:40 Landing Weight: 40794 Lbs
10:40 POS N39º 29´ 22´´ W000º 28´ 57´´
10:45 Parking brakes on
10:45 Block to Block Duration: 02:15
10:45 Final Fuel: 5643 Lbls
10:45 Spent Fuel: 3410 Lbls
10:45 Flight Length: 460 NM
10:45 TOD Land Length: 172 NM

Exportar CSV

Powered by Drupal - Modified by Danger4k